Sandnessjøen, Norge

21:54:CEST den 30. august 2015 (GMT +0200)
Stokka | | Change Station
CLOSE
Current Station
Flyplass
Location: Sandnessjoen,
Høyde over havet: 56 ft
Nearby Weather Stations

H.o.h 56 ft 65.96 °N, 12.47 °E | Updated 34 minutes ago

Scattered Clouds
Sporadisk skyet
55 °F
Feels Like 55 °F
N
16
Vind Variabel Vind from SSV

I dag
High -- | Low -- °F
--% Chance of Precip.
I går
High -- | Low -- °F
Precip. -- tommer
5:37 AM 8:42 PM
Fullmåne, 98% visible
Lufttrykk 29.95 tommer
Sikt 6.2 eng. mil
Skyet Few 1200 ft
Sporadisk skyet 7000 ft
Duggpunkt 54 °F
Fuktighet 94%
Regn 0.00 tommer
Snødybde Not available.
UV 0 av 12
Pollen Not available.
Luftkvalitet Not available.
Flu Activity Not available.
METAR ENST 301920Z 21014KT 9999 FEW012TCU SCT070 13/12 Q1014 RMK WIND 300FT 22014KT
Lufttrykk 29.95 tommer
Sikt 6.2 eng. mil
Skyet Few 1200 ft
Sporadisk skyet 7000 ft
Duggpunkt 54 °F
Fuktighet 94%
Regn 0.00 tommer
Snødybde Not available.
UV 0 av 12
Pollen Not available.
Luftkvalitet Not available.
Flu Activity Not available.
METAR ENST 301920Z 21014KT 9999 FEW012TCU SCT070 13/12 Q1014 RMK WIND 300FT 22014KT

10-Day Weather Forecast

×

Almanac

Astronomi

Aug. 30, 2015 Oppgang Nedgang
Virkelig tid
Tussmørke
Nautisk skumring
Astronomisk skumring
Månen
Lengde av synlig lys
Dagens lengde
Tomorrow will be .
, % of the Moon is Illuminated

Dagens maks og min

Country Highs Country Lows

Community

WunderPhotos

Upload Photos

1,851,041 photos uploaded!

WunderBlogs® & News

Nearby

Luftkvalitet

  Luftkvalitet AQ Indeks Forurensing
Not available.

Snødybde

Stasjon Depth Høyde over havet

Earthquake Activity

By Distance Mag. Time & Date
Minimum magnitude displayed is 2.5.

Coastal Water Temperatures

Sted Temperatur

Stations

Nearby Weather Stations

Stasjonens lokasjon Temp. Nedkjølingseffekt Duggpunkt Fuktighet Vind Precip. H.o.h Oppdatert Type